Time;durP1;ratioP1;P1;durP2;ratioP2;P2;SDS_P1;SDS_P2;PMS_P1;PMS_P2;Temp;Humidity;BMP_temperature;BMP_pressure;BME280_temperature;BME280_humidity;BME280_pressure;Samples;Min_cycle;Max_cycle;Signal;HPM_P1;HPM_P2
2023/04/26 00:00:42;;;;;;;11.27;7.57;;;;;;;;;;6097594;23;20010;-79
2023/04/26 00:03:08;;;;;;;13.82;8.32;;;;;;;;;;6073413;23;20021;-78
2023/04/26 00:05:36;;;;;;;7.22;6.65;;;;;;;;;;6127359;23;20339;-80
2023/04/26 00:08:03;;;;;;;7.13;6.43;;;;;;;;;;6142646;23;20036;-79
2023/04/26 00:10:29;;;;;;;6.32;5.70;;;;;;;;;;6143800;23;20014;-78
2023/04/26 00:12:55;;;;;;;6.53;5.90;;;;;;;;;;6144315;23;20037;-79
2023/04/26 00:15:21;;;;;;;6.85;6.15;;;;;;;;;;6144103;23;20022;-80
2023/04/26 00:17:47;;;;;;;6.55;6.00;;;;;;;;;;6139377;23;20018;-78
2023/04/26 00:20:14;;;;;;;7.93;6.63;;;;;;;;;;6132052;23;20014;-79
2023/04/26 00:22:40;;;;;;;6.38;5.78;;;;;;;;;;6128485;23;20042;-79
2023/04/26 00:25:06;;;;;;;6.72;5.55;;;;;;;;;;6129236;23;20068;-78
2023/04/26 00:27:33;;;;;;;6.30;5.80;;;;;;;;;;6110299;23;20045;-80
2023/04/26 00:29:59;;;;;;;6.85;5.60;;;;;;;;;;6130535;23;20162;-81
2023/04/26 00:32:25;;;;;;;6.38;5.78;;;;;;;;;;6127699;23;20029;-79
2023/04/26 00:34:51;;;;;;;6.00;5.50;;;;;;;;;;6125772;23;20014;-80
2023/04/26 00:37:17;;;;;;;6.20;5.60;;;;;;;;;;6099777;23;20032;-79
2023/04/26 00:39:43;;;;;;;7.13;5.80;;;;;;;;;;6098783;23;20010;-79
2023/04/26 00:42:10;;;;;;;7.45;6.72;;;;;;;;;;6098505;23;20025;-78
2023/04/26 00:44:38;;;;;;;7.32;6.63;;;;;;;;;;6124277;23;20010;-79
2023/04/26 00:47:05;;;;;;;6.45;5.07;;;;;;;;;;6123945;23;20022;-78
2023/04/26 00:49:31;;;;;;;5.65;5.25;;;;;;;;;;6097884;23;20053;-78
2023/04/26 00:51:57;;;;;;;6.25;4.53;;;;;;;;;;6098203;23;20033;-79
2023/04/26 00:54:24;;;;;;;6.35;5.22;;;;;;;;;;6098385;23;20018;-79
2023/04/26 00:56:52;;;;;;;6.05;5.55;;;;;;;;;;6124401;23;20041;-80
2023/04/26 00:59:21;;;;;;;5.65;5.15;;;;;;;;;;6098903;23;20018;-80
2023/04/26 01:01:48;;;;;;;5.80;5.40;;;;;;;;;;6128311;23;20408;-80
2023/04/26 01:04:14;;;;;;;6.65;6.15;;;;;;;;;;6076148;23;20037;-79
2023/04/26 01:06:40;;;;;;;6.28;5.65;;;;;;;;;;6125750;23;20013;-79
2023/04/26 01:09:08;;;;;;;6.03;5.53;;;;;;;;;;6101180;23;20014;-76
2023/04/26 01:11:34;;;;;;;7.22;5.53;;;;;;;;;;6102531;23;20061;-78
2023/04/26 01:14:00;;;;;;;6.68;6.13;;;;;;;;;;6081627;23;20017;-78
2023/04/26 01:16:27;;;;;;;11.02;7.00;;;;;;;;;;6109564;23;20009;-78
2023/04/26 01:18:53;;;;;;;10.45;6.32;;;;;;;;;;6082900;23;20014;-81
2023/04/26 01:21:20;;;;;;;7.10;6.50;;;;;;;;;;6105221;23;20026;-79
2023/04/26 01:23:47;;;;;;;6.95;6.45;;;;;;;;;;6082026;23;20018;-78
2023/04/26 01:26:13;;;;;;;7.00;6.18;;;;;;;;;;6101193;23;20014;-79
2023/04/26 01:28:40;;;;;;;7.90;7.22;;;;;;;;;;6098219;23;20025;-79
2023/04/26 01:31:06;;;;;;;8.00;7.40;;;;;;;;;;6123698;23;20018;-80
2023/04/26 01:33:32;;;;;;;10.00;7.85;;;;;;;;;;6073857;23;20014;-79
2023/04/26 01:35:58;;;;;;;8.40;7.80;;;;;;;;;;6097613;23;20085;-78
2023/04/26 01:38:24;;;;;;;8.60;7.65;;;;;;;;;;6123883;23;20014;-79
2023/04/26 01:40:53;;;;;;;9.68;7.55;;;;;;;;;;6098131;23;20009;-78
2023/04/26 01:43:21;;;;;;;9.00;7.10;;;;;;;;;;6124805;23;20013;-77
2023/04/26 01:45:48;;;;;;;7.88;7.07;;;;;;;;;;6074666;23;20081;-77
2023/04/26 01:48:30;;;;;;;8.02;7.13;;;;;;;;;;6097478;23;20031;-78
2023/04/26 01:51:00;;;;;;;7.93;7.03;;;;;;;;;;6123502;23;20029;-78
2023/04/26 01:53:26;;;;;;;6.53;5.93;;;;;;;;;;6074343;23;20375;-77
2023/04/26 01:55:54;;;;;;;6.72;6.22;;;;;;;;;;6123724;23;20010;-77
2023/04/26 01:58:20;;;;;;;7.57;6.15;;;;;;;;;;6124855;23;20045;-78
2023/04/26 02:00:48;;;;;;;6.57;6.07;;;;;;;;;;6050040;23;20048;-78
2023/04/26 02:03:14;;;;;;;6.30;5.50;;;;;;;;;;6123928;23;20017;-80
2023/04/26 02:05:40;;;;;;;5.75;5.30;;;;;;;;;;6100188;23;20088;-78
2023/04/26 02:08:06;;;;;;;6.85;5.68;;;;;;;;;;6103086;23;20026;-79
2023/04/26 02:10:32;;;;;;;6.65;6.15;;;;;;;;;;6102270;23;20510;-78
2023/04/26 02:12:58;;;;;;;6.78;6.22;;;;;;;;;;6125505;23;20017;-79
2023/04/26 02:15:24;;;;;;;5.60;5.20;;;;;;;;;;6102797;23;20009;-79
2023/04/26 02:17:52;;;;;;;6.20;5.60;;;;;;;;;;6104077;23;20018;-78
2023/04/26 02:20:20;;;;;;;6.30;5.80;;;;;;;;;;6127624;23;20010;-79
2023/04/26 02:22:46;;;;;;;5.93;5.32;;;;;;;;;;6098190;23;20018;-79
2023/04/26 02:25:15;;;;;;;8.48;6.15;;;;;;;;;;6097241;23;20085;-79
2023/04/26 02:27:41;;;;;;;9.43;7.18;;;;;;;;;;6073309;23;20461;-79
2023/04/26 02:30:09;;;;;;;6.68;6.13;;;;;;;;;;6097463;23;20056;-78
2023/04/26 02:32:35;;;;;;;5.95;5.55;;;;;;;;;;6096895;23;20065;-79
2023/04/26 02:35:01;;;;;;;7.72;7.03;;;;;;;;;;6098767;23;20033;-78
2023/04/26 02:37:31;;;;;;;6.43;5.93;;;;;;;;;;6099817;23;20014;-79
2023/04/26 02:39:58;;;;;;;6.65;6.13;;;;;;;;;;6099858;23;20018;-78
2023/04/26 02:42:24;;;;;;;6.13;5.72;;;;;;;;;;6124054;23;20076;-80
2023/04/26 02:44:50;;;;;;;8.30;7.60;;;;;;;;;;6073258;23;20340;-81
2023/04/26 02:47:16;;;;;;;6.97;6.47;;;;;;;;;;6073532;23;20028;-78
2023/04/26 02:49:42;;;;;;;6.38;5.88;;;;;;;;;;6122845;23;20014;-81
2023/04/26 02:52:08;;;;;;;5.07;4.68;;;;;;;;;;6123253;23;20013;-79
2023/04/26 02:54:35;;;;;;;6.25;5.72;;;;;;;;;;6123204;23;20013;-81
2023/04/26 02:57:01;;;;;;;6.07;5.57;;;;;;;;;;6073936;23;20018;-82
2023/04/26 02:59:27;;;;;;;6.55;6.15;;;;;;;;;;6097803;23;20018;-78
2023/04/26 03:01:54;;;;;;;5.50;5.10;;;;;;;;;;6072632;23;20017;-79
2023/04/26 03:04:20;;;;;;;7.07;6.45;;;;;;;;;;6072928;23;20021;-79
2023/04/26 03:06:46;;;;;;;5.28;4.88;;;;;;;;;;6122697;23;20235;-79
2023/04/26 03:09:15;;;;;;;6.30;5.82;;;;;;;;;;6097541;23;20014;-78
2023/04/26 03:11:41;;;;;;;6.20;5.80;;;;;;;;;;6049383;23;20017;-79
2023/04/26 03:14:07;;;;;;;6.80;6.30;;;;;;;;;;6096687;23;20025;-77
2023/04/26 03:16:39;;;;;;;5.97;5.47;;;;;;;;;;6072977;23;20089;-79
2023/04/26 03:19:07;;;;;;;5.80;5.40;;;;;;;;;;6073083;23;20351;-77
2023/04/26 03:21:33;;;;;;;5.25;4.88;;;;;;;;;;6097131;23;20017;-78
2023/04/26 03:23:59;;;;;;;5.53;5.13;;;;;;;;;;6072781;23;20057;-78
2023/04/26 03:26:25;;;;;;;5.20;4.80;;;;;;;;;;6074162;23;20018;-78
2023/04/26 03:28:51;;;;;;;6.68;5.32;;;;;;;;;;6097125;23;20518;-78
2023/04/26 03:31:18;;;;;;;6.00;5.10;;;;;;;;;;6072852;23;20025;-78
2023/04/26 03:33:44;;;;;;;5.32;4.93;;;;;;;;;;6122874;23;20021;-78
2023/04/26 03:36:10;;;;;;;5.93;5.53;;;;;;;;;;6097059;23;20041;-78
2023/04/26 03:38:36;;;;;;;5.57;5.07;;;;;;;;;;6096199;23;20332;-78
2023/04/26 03:41:02;;;;;;;5.13;4.50;;;;;;;;;;6096538;23;20021;-78
2023/04/26 03:43:29;;;;;;;5.50;5.13;;;;;;;;;;6026120;23;20105;-78
2023/04/26 03:45:55;;;;;;;4.40;4.10;;;;;;;;;;6097081;23;20043;-78
2023/04/26 03:48:24;;;;;;;4.63;4.22;;;;;;;;;;6097037;23;20047;-78
2023/04/26 03:50:50;;;;;;;4.45;4.15;;;;;;;;;;6074826;23;20537;-78
2023/04/26 03:53:22;;;;;;;4.53;4.20;;;;;;;;;;6099927;23;20014;-79
2023/04/26 03:55:48;;;;;;;4.68;4.28;;;;;;;;;;6125584;23;20010;-78
2023/04/26 03:58:14;;;;;;;5.05;4.65;;;;;;;;;;6126093;23;20424;-77
2023/04/26 04:00:42;;;;;;;4.40;4.10;;;;;;;;;;6064120;23;20068;-78
2023/04/26 04:03:14;;;;;;;4.65;4.35;;;;;;;;;;6093300;23;20037;-78
2023/04/26 04:05:40;;;;;;;5.22;4.72;;;;;;;;;;6116963;23;20013;-80
2023/04/26 04:08:07;;;;;;;5.55;4.40;;;;;;;;;;6081080;23;20021;-79
2023/04/26 04:10:33;;;;;;;4.53;4.20;;;;;;;;;;6126829;23;20010;-79
2023/04/26 04:12:59;;;;;;;4.95;4.60;;;;;;;;;;6099566;23;20021;-74
2023/04/26 04:15:25;;;;;;;4.90;4.55;;;;;;;;;;6099139;23;20018;-78
2023/04/26 04:17:53;;;;;;;4.88;4.57;;;;;;;;;;6099009;23;20010;-75
2023/04/26 04:20:20;;;;;;;4.32;4.03;;;;;;;;;;6074559;23;20085;-75
2023/04/26 04:22:46;;;;;;;4.88;4.47;;;;;;;;;;6098052;23;20192;-75
2023/04/26 04:25:13;;;;;;;6.22;4.78;;;;;;;;;;6098402;23;20014;-74
2023/04/26 04:27:41;;;;;;;4.75;3.97;;;;;;;;;;6124333;23;20032;-75
2023/04/26 04:30:08;;;;;;;4.85;4.55;;;;;;;;;;6098265;23;20430;-75
2023/04/26 04:32:34;;;;;;;4.20;4.00;;;;;;;;;;6070438;23;20022;-75
2023/04/26 04:35:00;;;;;;;5.07;4.65;;;;;;;;;;6096048;23;20069;-75
2023/04/26 04:37:32;;;;;;;4.97;4.57;;;;;;;;;;6096729;23;20150;-74
2023/04/26 04:39:58;;;;;;;;;;;;;;;;;;6123194;23;20010;-75
2023/04/26 04:42:26;;;;;;;4.43;4.07;;;;;;;;;;6051379;23;19909;-74
2023/04/26 04:44:53;;;;;;;6.00;4.25;;;;;;;;;;6098286;23;20097;-75
2023/04/26 04:47:19;;;;;;;4.60;4.30;;;;;;;;;;6122990;23;20439;-74
2023/04/26 04:49:46;;;;;;;4.00;3.70;;;;;;;;;;6072928;23;20065;-75
2023/04/26 04:52:12;;;;;;;4.22;3.83;;;;;;;;;;6073402;23;20021;-75
2023/04/26 04:54:38;;;;;;;4.57;4.22;;;;;;;;;;6097741;23;20476;-74
2023/04/26 04:57:04;;;;;;;4.10;3.70;;;;;;;;;;6073140;23;20022;-78
2023/04/26 04:59:32;;;;;;;6.82;4.28;;;;;;;;;;6096917;23;20014;-77
2023/04/26 05:01:59;;;;;;;5.53;3.90;;;;;;;;;;6096846;23;20049;-78
2023/04/26 05:04:28;;;;;;;3.67;3.42;;;;;;;;;;6073627;23;20039;-77
2023/04/26 05:06:53;;;;;;;4.43;4.03;;;;;;;;;;6123123;23;20123;-78
2023/04/26 05:09:22;;;;;;;6.43;4.15;;;;;;;;;;6097269;23;20014;-77
2023/04/26 05:11:48;;;;;;;4.85;4.55;;;;;;;;;;6097612;23;20488;-75
2023/04/26 05:14:15;;;;;;;5.07;4.75;;;;;;;;;;6049621;23;20014;-76
2023/04/26 05:16:41;;;;;;;4.97;4.25;;;;;;;;;;6123082;23;20069;-77
2023/04/26 05:19:08;;;;;;;4.57;4.22;;;;;;;;;;6097192;23;20041;-75
2023/04/26 05:21:34;;;;;;;6.15;5.22;;;;;;;;;;6097488;23;20018;-77
2023/04/26 05:24:00;;;;;;;4.53;4.32;;;;;;;;;;6097101;23;20013;-78
2023/04/26 05:26:26;;;;;;;5.30;4.80;;;;;;;;;;6073642;23;20459;-77
2023/04/26 05:28:57;;;;;;;3.42;3.22;;;;;;;;;;6097670;23;20025;-77
2023/04/26 05:31:36;;;;;;;4.43;4.03;;;;;;;;;;6076690;23;20430;-78
2023/04/26 05:34:10;;;;;;;5.90;4.70;;;;;;;;;;6097043;23;20018;-77
2023/04/26 05:36:38;;;;;;;5.55;4.63;;;;;;;;;;6097087;23;20018;-76
2023/04/26 05:39:07;;;;;;;4.40;4.10;;;;;;;;;;6122524;23;20097;-77
2023/04/26 05:41:33;;;;;;;5.60;4.32;;;;;;;;;;6097528;23;20073;-79
2023/04/26 05:44:00;;;;;;;6.63;4.60;;;;;;;;;;6073117;23;20065;-81
2023/04/26 05:46:28;;;;;;;4.63;4.25;;;;;;;;;;6097520;23;20067;-78
2023/04/26 05:48:54;;;;;;;4.80;4.50;;;;;;;;;;6097371;23;20493;-79
2023/04/26 05:51:20;;;;;;;4.47;4.07;;;;;;;;;;6122977;23;20037;-78
2023/04/26 05:53:46;;;;;;;2.95;2.85;;;;;;;;;;6122641;23;20018;-78
2023/04/26 05:56:15;;;;;;;5.18;4.75;;;;;;;;;;6096933;23;20041;-76
2023/04/26 05:58:45;;;;;;;3.50;3.30;;;;;;;;;;6122105;23;20021;-76
2023/04/26 06:01:12;;;;;;;3.08;2.88;;;;;;;;;;6096245;23;20018;-76
2023/04/26 06:03:38;;;;;;;4.70;4.40;;;;;;;;;;6122960;23;20526;-76
2023/04/26 06:06:07;;;;;;;3.90;3.70;;;;;;;;;;6073538;23;20014;-78
2023/04/26 06:08:35;;;;;;;4.50;4.10;;;;;;;;;;6072487;23;20061;-75
2023/04/26 06:11:05;;;;;;;4.68;4.28;;;;;;;;;;6097158;23;20411;-75
2023/04/26 06:13:32;;;;;;;5.97;3.70;;;;;;;;;;6096209;23;20482;-75
2023/04/26 06:16:00;;;;;;;4.88;3.30;;;;;;;;;;6072860;23;20053;-77
2023/04/26 06:18:26;;;;;;;4.18;3.88;;;;;;;;;;6096610;23;20018;-75
2023/04/26 06:20:52;;;;;;;4.75;4.35;;;;;;;;;;6096573;23;20084;-76
2023/04/26 06:23:18;;;;;;;4.05;3.75;;;;;;;;;;6122439;23;20049;-76
2023/04/26 06:25:46;;;;;;;3.47;3.28;;;;;;;;;;6096371;23;20416;-75
2023/04/26 06:28:12;;;;;;;4.97;3.97;;;;;;;;;;6072466;23;20092;-75
2023/04/26 06:30:39;;;;;;;3.85;3.58;;;;;;;;;;6096381;23;20010;-76
2023/04/26 06:33:05;;;;;;;5.25;3.95;;;;;;;;;;6097870;23;20014;-76
2023/04/26 06:35:39;;;;;;;3.63;3.30;;;;;;;;;;6051401;23;20017;-76
2023/04/26 06:38:05;;;;;;;3.70;3.38;;;;;;;;;;6095740;23;20014;-76
2023/04/26 06:40:32;;;;;;;4.00;3.50;;;;;;;;;;6096528;23;20005;-76
2023/04/26 06:42:58;;;;;;;4.03;3.72;;;;;;;;;;6096456;23;20024;-75
2023/04/26 06:45:36;;;;;;;3.90;3.60;;;;;;;;;;6096684;23;20114;-75
2023/04/26 06:48:04;;;;;;;3.95;3.67;;;;;;;;;;6122522;23;20030;-77
2023/04/26 06:50:30;;;;;;;3.20;3.00;;;;;;;;;;6096835;23;20020;-74
2023/04/26 06:52:58;;;;;;;3.10;2.80;;;;;;;;;;6096838;23;20051;-78
2023/04/26 06:55:25;;;;;;;3.30;3.08;;;;;;;;;;6096411;23;20427;-76
2023/04/26 06:57:51;;;;;;;4.63;2.75;;;;;;;;;;6096413;23;20018;-76
2023/04/26 07:00:17;;;;;;;1.80;1.70;;;;;;;;;;6122001;23;20088;-75
2023/04/26 07:02:44;;;;;;;2.40;2.30;;;;;;;;;;6122652;23;20493;-74
2023/04/26 07:05:16;;;;;;;3.00;2.80;;;;;;;;;;6072492;23;20389;-74
2023/04/26 07:07:42;;;;;;;2.58;2.42;;;;;;;;;;6096543;23;20348;-74
2023/04/26 07:10:08;;;;;;;2.70;2.60;;;;;;;;;;6096154;23;20020;-74
2023/04/26 07:12:34;;;;;;;2.20;2.10;;;;;;;;;;6096918;23;20014;-73
2023/04/26 07:15:00;;;;;;;2.80;2.60;;;;;;;;;;6122635;23;20017;-73
2023/04/26 07:17:26;;;;;;;2.78;2.67;;;;;;;;;;6123387;23;20018;-74
2023/04/26 07:19:52;;;;;;;3.95;2.97;;;;;;;;;;6106797;23;20006;-74
2023/04/26 07:22:18;;;;;;;4.72;2.70;;;;;;;;;;6143387;23;20021;-74
2023/04/26 07:24:44;;;;;;;2.63;2.42;;;;;;;;;;6119017;23;20014;-74
2023/04/26 07:27:10;;;;;;;2.55;2.35;;;;;;;;;;6140922;23;20032;-74
2023/04/26 07:29:40;;;;;;;3.65;3.35;;;;;;;;;;6146196;23;20020;-76
2023/04/26 07:32:06;;;;;;;2.50;2.30;;;;;;;;;;6132884;23;20018;-74
2023/04/26 07:34:32;;;;;;;2.60;2.50;;;;;;;;;;6099326;23;20015;-74
2023/04/26 07:36:58;;;;;;;2.60;2.50;;;;;;;;;;6125555;23;20112;-75
2023/04/26 07:39:23;;;;;;;2.20;2.10;;;;;;;;;;6124744;23;20014;-75
2023/04/26 07:41:50;;;;;;;2.80;2.70;;;;;;;;;;6125838;23;20014;-74
2023/04/26 07:44:15;;;;;;;3.28;2.97;;;;;;;;;;6099394;23;20017;-76
2023/04/26 07:46:41;;;;;;;4.40;3.35;;;;;;;;;;6097628;23;20139;-75
2023/04/26 07:49:08;;;;;;;3.42;2.90;;;;;;;;;;6073817;23;20029;-76
2023/04/26 07:51:34;;;;;;;3.83;3.40;;;;;;;;;;6097847;23;20017;-74
2023/04/26 07:54:00;;;;;;;3.97;2.97;;;;;;;;;;6098436;23;20010;-74
2023/04/26 07:56:27;;;;;;;3.10;2.90;;;;;;;;;;6097846;23;20096;-75
2023/04/26 07:58:52;;;;;;;3.78;3.25;;;;;;;;;;6097959;23;20054;-74
2023/04/26 08:01:19;;;;;;;3.00;2.67;;;;;;;;;;6124186;23;20041;-75
2023/04/26 08:03:46;;;;;;;2.65;2.45;;;;;;;;;;6128772;23;20021;-74
2023/04/26 08:06:12;;;;;;;2.63;2.50;;;;;;;;;;6103220;23;20371;-73
2023/04/26 08:08:43;;;;;;;2.35;2.25;;;;;;;;;;6103599;23;20030;-74
2023/04/26 08:11:09;;;;;;;2.75;2.00;;;;;;;;;;6085404;23;20073;-74
2023/04/26 08:13:35;;;;;;;2.92;2.30;;;;;;;;;;6124442;23;20073;-73
2023/04/26 08:16:01;;;;;;;2.30;2.20;;;;;;;;;;6123669;23;20010;-73
2023/04/26 08:18:27;;;;;;;2.30;2.20;;;;;;;;;;6123181;23;20277;-73
2023/04/26 08:20:56;;;;;;;2.13;1.98;;;;;;;;;;6097421;23;20034;-73
2023/04/26 08:23:22;;;;;;;8.05;2.08;;;;;;;;;;6123155;23;20018;-73
2023/04/26 08:25:51;;;;;;;2.80;2.60;;;;;;;;;;6097894;23;20021;-72
2023/04/26 08:28:17;;;;;;;2.45;2.35;;;;;;;;;;6122792;23;20033;-73
2023/04/26 08:30:43;;;;;;;2.60;2.40;;;;;;;;;;6097733;23;20093;-73
2023/04/26 08:33:10;;;;;;;2.85;2.67;;;;;;;;;;6123697;23;20017;-72
2023/04/26 08:35:36;;;;;;;2.33;2.22;;;;;;;;;;6124196;23;20132;-73
2023/04/26 08:38:02;;;;;;;2.63;2.53;;;;;;;;;;6124181;23;20021;-74
2023/04/26 08:40:28;;;;;;;2.42;2.33;;;;;;;;;;6100370;23;20018;-74
2023/04/26 08:42:54;;;;;;;3.67;2.45;;;;;;;;;;6141881;23;20013;-73
2023/04/26 08:45:20;;;;;;;2.65;2.55;;;;;;;;;;6144285;23;20013;-73
2023/04/26 08:47:50;;;;;;;2.75;2.05;;;;;;;;;;6144450;23;20045;-74
2023/04/26 08:50:20;;;;;;;2.70;2.60;;;;;;;;;;6119991;23;20030;-74
2023/04/26 08:52:46;;;;;;;3.10;2.90;;;;;;;;;;6119799;23;20040;-73
2023/04/26 08:55:13;;;;;;;4.13;2.90;;;;;;;;;;6140127;23;20020;-72
2023/04/26 08:57:39;;;;;;;4.13;2.92;;;;;;;;;;6124981;23;20014;-73
2023/04/26 09:00:14;;;;;;;2.58;2.47;;;;;;;;;;6073187;23;20037;-73
2023/04/26 09:02:41;;;;;;;3.25;2.95;;;;;;;;;;6123299;23;20013;-73
2023/04/26 09:05:08;;;;;;;3.13;2.95;;;;;;;;;;6122847;23;20018;-73
2023/04/26 09:07:44;;;;;;;6.03;3.30;;;;;;;;;;6097687;23;20022;-73
2023/04/26 09:10:10;;;;;;;3.38;3.08;;;;;;;;;;6122733;23;20346;-72
2023/04/26 09:12:36;;;;;;;3.15;2.95;;;;;;;;;;6123193;23;20057;-73
2023/04/26 09:15:06;;;;;;;2.95;2.85;;;;;;;;;;6097620;23;20025;-75
2023/04/26 09:17:38;;;;;;;3.80;3.50;;;;;;;;;;6097531;23;20529;-73
2023/04/26 09:20:18;;;;;;;3.83;3.55;;;;;;;;;;6123213;23;20033;-73
2023/04/26 09:22:45;;;;;;;3.65;3.38;;;;;;;;;;6123231;23;20014;-72
2023/04/26 09:25:12;;;;;;;4.40;4.13;;;;;;;;;;6122389;23;20033;-71
2023/04/26 09:27:38;;;;;;;3.83;3.58;;;;;;;;;;6123047;23;20033;-72
2023/04/26 09:30:09;;;;;;;3.88;3.58;;;;;;;;;;6097579;23;20347;-78
2023/04/26 09:32:51;;;;;;;4.68;4.22;;;;;;;;;;6097490;23;20450;-78
2023/04/26 09:35:36;;;;;;;5.00;4.60;;;;;;;;;;6122733;23;20062;-77
2023/04/26 09:38:06;;;;;;;6.55;4.40;;;;;;;;;;6123138;23;20471;-77
2023/04/26 09:40:36;;;;;;;4.20;3.97;;;;;;;;;;6074300;23;20017;-79
2023/04/26 09:43:11;;;;;;;4.43;4.13;;;;;;;;;;6123776;23;20022;-80
2023/04/26 09:45:52;;;;;;;5.70;5.18;;;;;;;;;;6123209;23;20029;-78
2023/04/26 09:48:21;;;;;;;8.88;6.43;;;;;;;;;;6096213;23;20030;-75
2023/04/26 09:50:51;;;;;;;4.28;3.97;;;;;;;;;;6096972;23;20074;-78
2023/04/26 09:53:35;;;;;;;5.65;5.22;;;;;;;;;;6097507;23;20363;-75
2023/04/26 09:56:09;;;;;;;8.25;7.15;;;;;;;;;;6122749;23;20022;-74
2023/04/26 09:58:36;;;;;;;7.95;7.35;;;;;;;;;;6122446;23;20014;-74
2023/04/26 10:01:02;;;;;;;8.57;7.88;;;;;;;;;;6122025;23;20018;-73
2023/04/26 10:03:28;;;;;;;6.45;5.85;;;;;;;;;;6122652;23;20014;-72
2023/04/26 10:05:55;;;;;;;5.32;5.03;;;;;;;;;;6096704;23;20363;-73
2023/04/26 10:08:21;;;;;;;5.07;4.30;;;;;;;;;;6096208;23;20077;-72
2023/04/26 10:10:47;;;;;;;3.70;3.50;;;;;;;;;;6096472;23;20017;-72
2023/04/26 10:13:14;;;;;;;5.10;4.60;;;;;;;;;;6072254;23;20363;-73
2023/04/26 10:15:40;;;;;;;5.30;4.18;;;;;;;;;;6096547;23;20522;-72
2023/04/26 10:18:07;;;;;;;3.67;3.38;;;;;;;;;;6096720;23;20053;-73
2023/04/26 10:20:33;;;;;;;3.20;3.03;;;;;;;;;;6122248;23;20017;-72
2023/04/26 10:23:00;;;;;;;2.70;2.50;;;;;;;;;;6122510;23;20040;-72
2023/04/26 10:25:40;;;;;;;3.30;2.70;;;;;;;;;;6072830;23;20461;-72
2023/04/26 10:28:06;;;;;;;3.55;3.35;;;;;;;;;;6122154;23;20029;-72
2023/04/26 10:30:32;;;;;;;3.50;3.30;;;;;;;;;;6072165;23;20010;-73
2023/04/26 10:32:58;;;;;;;2.95;2.83;;;;;;;;;;6096943;23;20096;-72
2023/04/26 10:35:25;;;;;;;3.80;3.22;;;;;;;;;;6122296;23;20014;-72
2023/04/26 10:38:00;;;;;;;3.53;2.85;;;;;;;;;;6097058;23;20358;-72
2023/04/26 10:40:33;;;;;;;4.10;3.85;;;;;;;;;;6122527;23;20347;-73
2023/04/26 10:43:12;;;;;;;4.70;4.40;;;;;;;;;;6122609;23;20089;-73
2023/04/26 10:45:38;;;;;;;5.57;5.18;;;;;;;;;;6122592;23;20018;-71
2023/04/26 10:48:17;;;;;;;5.43;5.03;;;;;;;;;;6122205;23;20375;-73
2023/04/26 10:51:12;;;;;;;5.57;5.07;;;;;;;;;;6122764;23;20067;-73
2023/04/26 10:53:44;;;;;;;6.00;5.53;;;;;;;;;;6097085;23;20352;-73
2023/04/26 10:56:22;;;;;;;5.03;4.72;;;;;;;;;;6121564;23;20466;-73
2023/04/26 10:58:48;;;;;;;6.30;4.70;;;;;;;;;;6121931;23;20010;-74
2023/04/26 11:01:16;;;;;;;4.25;3.95;;;;;;;;;;6121880;23;20367;-75
2023/04/26 11:03:42;;;;;;;4.43;4.03;;;;;;;;;;6121833;23;20018;-75
2023/04/26 11:06:08;;;;;;;4.80;4.32;;;;;;;;;;6122987;23;20032;-72
2023/04/26 11:08:35;;;;;;;4.43;4.18;;;;;;;;;;6072842;23;20489;-72
2023/04/26 11:11:02;;;;;;;3.78;3.50;;;;;;;;;;6122151;23;20033;-72
2023/04/26 11:13:31;;;;;;;4.38;4.07;;;;;;;;;;6121321;23;20025;-72
2023/04/26 11:16:03;;;;;;;4.32;4.03;;;;;;;;;;6120459;23;20025;-72
2023/04/26 11:18:30;;;;;;;5.07;4.70;;;;;;;;;;6120775;23;20010;-72
2023/04/26 11:20:57;;;;;;;5.38;4.70;;;;;;;;;;6121333;23;20359;-72
2023/04/26 11:23:23;;;;;;;5.72;5.28;;;;;;;;;;6120687;23;20024;-72
2023/04/26 11:25:51;;;;;;;3.35;3.15;;;;;;;;;;6094663;23;20045;-73
2023/04/26 11:28:17;;;;;;;5.53;4.50;;;;;;;;;;6120082;23;20536;-73
2023/04/26 11:30:43;;;;;;;5.35;4.95;;;;;;;;;;6120131;23;20466;-73
2023/04/26 11:33:17;;;;;;;5.75;5.25;;;;;;;;;;6119324;23;20066;-72
2023/04/26 11:35:46;;;;;;;5.57;5.07;;;;;;;;;;6095359;23;20086;-72
2023/04/26 11:38:15;;;;;;;5.05;4.72;;;;;;;;;;6093955;23;20096;-73
2023/04/26 11:40:41;;;;;;;4.57;4.28;;;;;;;;;;6122434;23;20093;-73
2023/04/26 11:43:07;;;;;;;4.90;4.43;;;;;;;;;;6072191;23;20045;-72
2023/04/26 11:45:34;;;;;;;4.22;3.95;;;;;;;;;;6122349;23;20463;-74
2023/04/26 11:48:04;;;;;;;4.38;4.07;;;;;;;;;;6096728;23;20089;-73
2023/04/26 11:50:31;;;;;;;4.25;4.00;;;;;;;;;;6122287;23;20017;-72
2023/04/26 11:52:59;;;;;;;4.15;3.95;;;;;;;;;;6097119;23;20447;-72
2023/04/26 11:55:28;;;;;;;4.13;3.13;;;;;;;;;;6122382;23;20018;-72
2023/04/26 11:57:54;;;;;;;5.72;3.55;;;;;;;;;;6122587;23;20042;-72
2023/04/26 12:00:20;;;;;;;4.10;3.70;;;;;;;;;;6122721;23;20049;-72
2023/04/26 12:02:47;;;;;;;3.70;3.50;;;;;;;;;;6122463;23;20014;-72
2023/04/26 12:05:22;;;;;;;3.90;3.60;;;;;;;;;;6122872;23;20013;-73
2023/04/26 12:07:55;;;;;;;5.38;3.80;;;;;;;;;;6122850;23;20022;-73
2023/04/26 12:10:26;;;;;;;3.30;3.10;;;;;;;;;;6097196;23;20010;-73
2023/04/26 12:12:53;;;;;;;5.43;3.70;;;;;;;;;;6126375;23;20018;-72
2023/04/26 12:15:23;;;;;;;2.50;2.40;;;;;;;;;;6126450;23;20057;-72
2023/04/26 12:17:52;;;;;;;2.60;2.37;;;;;;;;;;6125641;23;20021;-71
2023/04/26 12:20:18;;;;;;;3.10;2.90;;;;;;;;;;6123972;23;20416;-71
2023/04/26 12:23:00;;;;;;;2.42;2.33;;;;;;;;;;6075016;23;20017;-72
2023/04/26 12:25:26;;;;;;;2.25;2.10;;;;;;;;;;6124429;23;20018;-72
2023/04/26 12:27:52;;;;;;;2.10;2.00;;;;;;;;;;6124123;23;20025;-73
2023/04/26 12:30:18;;;;;;;2.80;2.58;;;;;;;;;;6123870;23;20014;-72
2023/04/26 12:32:44;;;;;;;3.35;2.58;;;;;;;;;;6124315;23;20017;-73
2023/04/26 12:35:10;;;;;;;3.90;2.10;;;;;;;;;;6124519;23;20097;-72
2023/04/26 12:37:37;;;;;;;3.15;2.20;;;;;;;;;;6098150;23;20014;-73
2023/04/26 12:40:03;;;;;;;2.53;2.20;;;;;;;;;;6124103;23;20384;-73
2023/04/26 12:42:30;;;;;;;3.25;2.88;;;;;;;;;;6123964;23;20093;-72
2023/04/26 12:44:57;;;;;;;2.15;1.95;;;;;;;;;;6125151;23;20013;-72
2023/04/26 12:47:23;;;;;;;2.53;2.40;;;;;;;;;;6123363;23;20057;-72
2023/04/26 12:49:51;;;;;;;1.75;1.65;;;;;;;;;;6098305;23;20018;-72
2023/04/26 12:52:17;;;;;;;3.40;2.22;;;;;;;;;;6050372;23;20379;-72
2023/04/26 12:54:43;;;;;;;2.63;2.30;;;;;;;;;;6074437;23;20014;-72
2023/04/26 12:57:09;;;;;;;2.22;2.00;;;;;;;;;;6124178;23;20518;-72
2023/04/26 12:59:35;;;;;;;2.30;2.10;;;;;;;;;;6097693;23;20044;-72
2023/04/26 13:02:02;;;;;;;2.85;2.65;;;;;;;;;;6098150;23;20014;-72
2023/04/26 13:04:28;;;;;;;2.08;1.98;;;;;;;;;;6123905;23;20041;-73
2023/04/26 13:06:54;;;;;;;3.10;2.38;;;;;;;;;;6123646;23;20054;-73
2023/04/26 13:09:20;;;;;;;2.45;2.25;;;;;;;;;;6097662;23;20021;-73
2023/04/26 13:11:46;;;;;;;6.03;2.30;;;;;;;;;;6123849;23;20013;-73
2023/04/26 13:14:12;;;;;;;2.53;1.67;;;;;;;;;;6074971;23;20014;-73
2023/04/26 13:16:42;;;;;;;2.75;2.35;;;;;;;;;;6125701;23;20028;-72
2023/04/26 13:19:09;;;;;;;3.13;2.45;;;;;;;;;;6126067;23;20014;-73
2023/04/26 13:21:36;;;;;;;3.80;2.38;;;;;;;;;;6075264;23;20022;-73
2023/04/26 13:24:02;;;;;;;1.98;1.83;;;;;;;;;;6124956;23;20089;-72
2023/04/26 13:26:28;;;;;;;2.83;2.63;;;;;;;;;;6099528;23;20022;-73
2023/04/26 13:28:54;;;;;;;4.65;2.50;;;;;;;;;;6100048;23;20045;-72
2023/04/26 13:31:20;;;;;;;2.10;2.00;;;;;;;;;;6097390;23;20463;-73
2023/04/26 13:33:48;;;;;;;3.67;2.60;;;;;;;;;;6123533;23;20018;-73
2023/04/26 13:36:15;;;;;;;3.83;2.58;;;;;;;;;;6097587;23;20009;-72
2023/04/26 13:38:41;;;;;;;3.45;2.88;;;;;;;;;;6097902;23;20020;-73
2023/04/26 13:41:07;;;;;;;2.38;2.22;;;;;;;;;;6123364;23;20010;-72
2023/04/26 13:43:33;;;;;;;3.22;2.70;;;;;;;;;;6049500;23;20025;-73
2023/04/26 13:46:00;;;;;;;2.90;2.80;;;;;;;;;;6098922;23;20009;-72
2023/04/26 13:48:26;;;;;;;2.90;2.63;;;;;;;;;;6097951;23;20036;-73
2023/04/26 13:50:52;;;;;;;2.45;2.28;;;;;;;;;;6123376;23;20463;-73
2023/04/26 13:53:18;;;;;;;5.43;2.80;;;;;;;;;;6097568;23;20022;-73
2023/04/26 13:55:45;;;;;;;3.60;3.30;;;;;;;;;;6097285;23;20010;-73
2023/04/26 13:58:11;;;;;;;3.10;2.35;;;;;;;;;;6097902;23;20021;-72
2023/04/26 14:00:37;;;;;;;3.70;2.90;;;;;;;;;;6073583;23;20014;-73
2023/04/26 14:03:03;;;;;;;4.32;2.88;;;;;;;;;;6123473;23;20021;-73
2023/04/26 14:05:29;;;;;;;3.38;3.10;;;;;;;;;;6123202;23;20014;-72
2023/04/26 14:07:56;;;;;;;2.92;2.60;;;;;;;;;;6123300;23;20022;-73
2023/04/26 14:10:22;;;;;;;6.68;2.95;;;;;;;;;;6123195;23;20057;-73
2023/04/26 14:12:48;;;;;;;5.43;3.50;;;;;;;;;;6123322;23;20506;-73
2023/04/26 14:15:16;;;;;;;4.45;3.15;;;;;;;;;;6074534;23;20013;-73
2023/04/26 14:17:45;;;;;;;2.63;2.53;;;;;;;;;;6124612;23;20355;-73
2023/04/26 14:20:11;;;;;;;2.80;2.60;;;;;;;;;;6098937;23;20013;-73
2023/04/26 14:22:37;;;;;;;5.40;2.90;;;;;;;;;;6124262;23;20018;-72
2023/04/26 14:25:04;;;;;;;3.47;3.15;;;;;;;;;;6098921;23;20042;-73
2023/04/26 14:27:29;;;;;;;3.50;3.20;;;;;;;;;;6124705;23;20048;-73
2023/04/26 14:29:56;;;;;;;6.30;2.90;;;;;;;;;;6099155;23;20013;-73
2023/04/26 14:32:22;;;;;;;4.03;3.10;;;;;;;;;;6097269;23;20159;-73
2023/04/26 14:34:50;;;;;;;3.10;2.80;;;;;;;;;;6073425;23;20482;-72
2023/04/26 14:37:24;;;;;;;9.05;3.10;;;;;;;;;;6124252;23;20018;-73
2023/04/26 14:39:52;;;;;;;4.75;2.35;;;;;;;;;;6097360;23;20009;-72
2023/04/26 14:42:18;;;;;;;3.25;2.40;;;;;;;;;;6122934;23;20041;-72
2023/04/26 14:44:45;;;;;;;6.82;2.70;;;;;;;;;;6097050;23;20081;-72